This is the latest recevied weather packets stored in our database for station/object ANJALA. If no packets are shown the sender has not sent any weather packets the latest 1 day(s).
| Time | Temp. | Humidity | Pressure | Rain* | Wind** | Luminosity | Snow |
|---|---|---|---|---|---|---|---|
| 1778095640 | 3.89° C | 69% | - | 0 mm | - | - | - |
| 1778090840 | 8.33° C | 47% | - | 0 mm | - | - | - |
| 1778088440 | 8.33° C | 50% | - | 0 mm | - | - | - |
| 1778084840 | 10° C | 43% | - | 0 mm | - | - | - |
| 1778075239 | 11.11° C | 23% | - | 0 mm | - | - | - |
| 1778074040 | 11.67° C | 22% | - | 0 mm | - | - | - |
| 1778065639 | 11.67° C | 25% | - | 0 mm | - | - | - |
| 1778064439 | 12.22° C | 29% | - | 0 mm | - | - | - |
| 1778063239 | 10° C | 29% | - | 0 mm | - | - | - |
| 1778062039 | 10° C | 28% | - | 0 mm | - | - | - |
| 1778060839 | 11.11° C | 31% | - | 0 mm | - | - | - |
| 1778057239 | 9.44° C | 35% | - | 0 mm | - | - | - |
| 1778056039 | 8.89° C | 34% | - | 0 mm | - | - | - |
| 1778052439 | 8.33° C | 46% | - | 0 mm | - | - | - |
| 1778051238 | 7.78° C | 53% | - | 0 mm | - | - | - |
| 1778050038 | 7.22° C | 54% | - | 0 mm | - | - | - |
| 1778048838 | 6.67° C | 59% | - | 0 mm | - | - | - |
| 1778047638 | 5.56° C | 58% | - | 0 mm | - | - | - |
| 1778046438 | 5.56° C | 60% | - | 0 mm | - | - | - |
| 1778045238 | 4.44° C | 64% | - | 0 mm | - | - | - |
| 1778044038 | 3.89° C | 68% | - | 0 mm | - | - | - |
| 1778042838 | 3.33° C | 70% | - | 0 mm | - | - | - |
| 1778041638 | 2.78° C | 72% | - | 0 mm | - | - | - |
| 1778038037 | 1.11° C | 78% | - | 0 mm | - | - | - |
| 1778036838 | 0.56° C | 81% | - | 0 mm | - | - | - |
* Rain latest hour (hover to see other rain measurements)
** Current wind speed in m/s (hover to see current wind gust speed)